createdAt,value
2018-05-16T00:01:45.806Z,16.10
2018-05-16T00:04:11.849Z,16.10
2018-05-16T00:06:38.106Z,16.10
2018-05-16T00:09:04.149Z,16.10
2018-05-16T00:11:30.950Z,16.10
2018-05-16T00:13:57.028Z,16.10
2018-05-16T00:16:23.098Z,16.20
2018-05-16T00:18:49.158Z,16.20
2018-05-16T00:21:15.245Z,16.20
2018-05-16T00:23:41.430Z,16.20
2018-05-16T00:26:07.465Z,16.20
2018-05-16T00:28:33.540Z,16.20
2018-05-16T00:30:59.850Z,16.20
2018-05-16T00:33:25.912Z,16.20
2018-05-16T00:35:51.967Z,16.20
2018-05-16T00:38:18.025Z,16.20
2018-05-16T00:40:44.827Z,16.20
2018-05-16T00:43:10.885Z,16.10
2018-05-16T00:45:36.929Z,16.10
2018-05-16T00:48:03.112Z,16.00
2018-05-16T00:50:29.661Z,16.00
2018-05-16T00:52:55.717Z,15.90
2018-05-16T00:55:21.758Z,15.90
2018-05-16T00:57:47.852Z,15.90
2018-05-16T01:00:13.904Z,15.90
2018-05-16T01:02:40.726Z,15.90
2018-05-16T01:05:06.798Z,15.80
2018-05-16T01:07:32.836Z,15.90
2018-05-16T01:09:59.615Z,15.90
2018-05-16T01:12:25.724Z,15.90
2018-05-16T01:14:53.409Z,15.90
2018-05-16T01:17:19.496Z,15.90
2018-05-16T01:19:45.678Z,16.00
2018-05-16T01:22:12.503Z,16.00
2018-05-16T01:24:38.613Z,16.00
2018-05-16T01:27:04.644Z,16.10
2018-05-16T01:29:30.799Z,16.10
2018-05-16T01:31:56.867Z,16.10
2018-05-16T01:34:22.923Z,16.10
2018-05-16T01:36:49.690Z,16.00
2018-05-16T01:39:15.899Z,16.00
2018-05-16T01:41:41.945Z,16.00
2018-05-16T01:44:08.291Z,16.00
2018-05-16T01:46:34.356Z,16.00
2018-05-16T01:49:13.798Z,16.00
2018-05-16T01:51:40.614Z,16.00
2018-05-16T01:54:06.669Z,16.00
2018-05-16T01:56:33.506Z,15.90
2018-05-16T01:58:59.541Z,15.90
2018-05-16T02:01:25.581Z,16.00
2018-05-16T02:03:51.679Z,15.90
2018-05-16T02:06:17.815Z,15.90
2018-05-16T02:08:43.862Z,15.90
2018-05-16T02:11:09.911Z,15.90
2018-05-16T02:13:35.924Z,15.90
2018-05-16T02:16:02.067Z,15.90
2018-05-16T02:18:28.164Z,15.90
2018-05-16T02:20:55.017Z,15.90
2018-05-16T02:23:21.060Z,15.90
2018-05-16T02:25:47.152Z,16.00
2018-05-16T02:28:13.245Z,15.90
2018-05-16T02:30:40.033Z,15.90
2018-05-16T02:33:06.078Z,15.90
2018-05-16T02:35:32.121Z,16.00
2018-05-16T02:37:58.148Z,16.00
2018-05-16T02:40:24.480Z,15.90
2018-05-16T02:42:50.530Z,15.90
2018-05-16T02:45:16.651Z,15.90
2018-05-16T02:47:42.735Z,15.90
2018-05-16T02:50:08.775Z,15.90
2018-05-16T02:52:34.802Z,15.90
2018-05-16T02:55:01.085Z,15.90
2018-05-16T02:57:27.901Z,15.80
2018-05-16T02:59:53.940Z,15.80
2018-05-16T03:02:21.537Z,15.60
2018-05-16T03:04:47.620Z,15.50
2018-05-16T03:07:13.730Z,15.40
2018-05-16T03:09:40.898Z,15.10
2018-05-16T03:12:07.005Z,15.10
2018-05-16T03:14:33.106Z,15.00
2018-05-16T03:16:59.158Z,14.90
2018-05-16T03:19:25.379Z,14.80
2018-05-16T03:21:51.414Z,14.80
2018-05-16T03:24:17.512Z,14.70
2018-05-16T03:26:43.879Z,14.70
2018-05-16T03:29:10.091Z,14.70
2018-05-16T03:31:36.133Z,14.70
2018-05-16T03:34:02.952Z,14.60
2018-05-16T03:36:28.977Z,14.60
2018-05-16T03:38:55.018Z,14.60
2018-05-16T03:41:21.097Z,14.60
2018-05-16T03:43:47.969Z,14.70
2018-05-16T03:46:14.135Z,14.60
2018-05-16T03:48:40.238Z,14.70
2018-05-16T03:51:07.024Z,14.70
2018-05-16T03:53:33.110Z,14.70
2018-05-16T03:55:59.241Z,14.70
2018-05-16T03:58:37.638Z,14.70
2018-05-16T04:01:15.954Z,14.80
2018-05-16T04:03:54.127Z,14.90
2018-05-16T04:06:20.169Z,14.90
2018-05-16T04:08:46.257Z,14.90
2018-05-16T04:11:12.337Z,15.00
2018-05-16T04:13:38.381Z,15.00
2018-05-16T04:16:04.454Z,15.00
2018-05-16T04:18:30.612Z,15.10
2018-05-16T04:20:57.056Z,15.10
2018-05-16T04:23:23.117Z,15.10
2018-05-16T04:25:49.211Z,15.20
2018-05-16T04:28:16.046Z,15.20
2018-05-16T04:30:42.874Z,15.20
2018-05-16T04:33:08.940Z,15.20
2018-05-16T04:35:35.020Z,15.20
2018-05-16T04:38:01.363Z,15.20
2018-05-16T04:40:27.405Z,15.20
2018-05-16T04:42:53.444Z,15.20
2018-05-16T04:45:19.481Z,15.20
2018-05-16T04:47:45.562Z,15.20
2018-05-16T04:50:11.629Z,15.20
2018-05-16T04:52:38.447Z,15.20
2018-05-16T04:55:04.549Z,15.20
2018-05-16T04:57:30.602Z,15.20
2018-05-16T04:59:56.702Z,15.30
2018-05-16T05:02:22.768Z,15.40
2018-05-16T05:04:50.251Z,15.40
2018-05-16T05:07:16.456Z,15.50
2018-05-16T05:09:42.566Z,15.60
2018-05-16T05:12:08.758Z,15.70
2018-05-16T05:14:34.874Z,15.80
2018-05-16T05:17:00.979Z,15.80
2018-05-16T05:19:27.085Z,15.80
2018-05-16T05:21:53.489Z,15.70
2018-05-16T05:24:20.319Z,15.70
2018-05-16T05:26:47.195Z,15.70
2018-05-16T05:29:14.003Z,15.70
2018-05-16T05:31:40.109Z,15.70
2018-05-16T05:34:06.185Z,15.70
2018-05-16T05:36:32.260Z,15.70
2018-05-16T05:38:59.105Z,15.80
2018-05-16T05:41:25.927Z,15.80
2018-05-16T05:43:52.004Z,15.80
2018-05-16T05:46:18.104Z,15.90
2018-05-16T05:48:44.231Z,16.00
2018-05-16T05:51:10.296Z,16.20
2018-05-16T05:53:36.356Z,16.30
2018-05-16T05:56:03.058Z,16.70
2018-05-16T05:58:28.996Z,16.70
2018-05-16T06:00:55.062Z,16.90
2018-05-16T06:03:22.621Z,17.20
2018-05-16T06:05:49.436Z,17.40
2018-05-16T06:08:15.524Z,17.40
2018-05-16T06:10:41.588Z,17.50
2018-05-16T06:13:08.652Z,17.70
2018-05-16T06:15:34.786Z,17.60
2018-05-16T06:18:00.844Z,17.80
2018-05-16T06:20:26.887Z,17.80
2018-05-16T06:22:53.139Z,17.80
2018-05-16T06:25:19.186Z,17.90
2018-05-16T06:27:45.237Z,17.90
2018-05-16T06:30:11.369Z,17.90
2018-05-16T06:32:37.487Z,17.90
2018-05-16T06:35:03.516Z,18.10
2018-05-16T06:37:29.727Z,18.20
2018-05-16T06:39:56.620Z,18.30
2018-05-16T06:42:22.697Z,18.20
2018-05-16T06:44:48.813Z,18.50
2018-05-16T06:47:14.905Z,18.70
2018-05-16T06:49:41.711Z,19.00
2018-05-16T06:52:07.809Z,18.90
2018-05-16T06:54:35.367Z,19.10
2018-05-16T06:57:02.125Z,19.30
2018-05-16T06:59:28.164Z,19.30
2018-05-16T07:01:54.102Z,19.50
2018-05-16T07:04:20.792Z,19.60
2018-05-16T07:06:46.764Z,19.60
2018-05-16T07:09:13.757Z,19.70
2018-05-16T07:11:39.841Z,19.80
2018-05-16T07:14:05.916Z,19.90
2018-05-16T07:16:32.803Z,20.00
2018-05-16T07:18:58.895Z,20.00
2018-05-16T07:21:24.962Z,20.00
2018-05-16T07:23:52.474Z,19.90
2018-05-16T07:26:18.785Z,20.00
2018-05-16T07:28:44.850Z,20.10
2018-05-16T07:31:11.156Z,20.30
2018-05-16T07:33:37.228Z,20.40
2018-05-16T07:36:03.290Z,20.60
2018-05-16T07:38:29.452Z,20.70
2018-05-16T07:40:55.598Z,20.70
2018-05-16T07:43:22.392Z,20.60
2018-05-16T07:45:48.566Z,20.60
2018-05-16T07:48:14.767Z,20.60
2018-05-16T07:50:40.995Z,20.60
2018-05-16T07:53:08.002Z,20.60
2018-05-16T07:55:34.814Z,20.80
2018-05-16T07:58:01.155Z,20.80
2018-05-16T08:00:27.250Z,20.90
2018-05-16T08:02:53.341Z,20.90
2018-05-16T08:05:19.477Z,20.80
2018-05-16T08:07:45.619Z,20.70
2018-05-16T08:10:11.696Z,20.70
2018-05-16T08:12:37.788Z,20.60
2018-05-16T08:15:03.869Z,20.60
2018-05-16T08:17:29.957Z,20.70
2018-05-16T08:19:56.034Z,21.00
2018-05-16T08:22:22.142Z,21.20
2018-05-16T08:24:48.307Z,21.20
2018-05-16T08:27:14.395Z,21.30
2018-05-16T08:29:41.233Z,21.40
2018-05-16T08:32:07.364Z,21.40
2018-05-16T08:34:33.442Z,21.50
2018-05-16T08:37:00.385Z,21.40
2018-05-16T08:39:26.464Z,21.40
2018-05-16T08:41:52.542Z,21.50
2018-05-16T08:44:18.635Z,21.60
2018-05-16T08:46:44.769Z,21.80
2018-05-16T08:49:10.821Z,21.80
2018-05-16T08:51:36.896Z,21.80
2018-05-16T08:54:10.791Z,21.80
2018-05-16T08:56:36.894Z,21.70
2018-05-16T08:59:03.003Z,22.00
2018-05-16T09:01:29.075Z,22.10
2018-05-16T09:03:55.178Z,22.20
2018-05-16T09:06:21.327Z,22.40
2018-05-16T09:08:47.324Z,22.50
2018-05-16T09:11:13.365Z,22.80
2018-05-16T09:13:39.421Z,22.80
2018-05-16T09:16:05.511Z,22.70
2018-05-16T09:18:31.617Z,22.70
2018-05-16T09:20:57.809Z,22.80
2018-05-16T09:23:23.923Z,23.00
2018-05-16T09:25:49.976Z,23.00
2018-05-16T09:28:16.206Z,23.20
2018-05-16T09:30:42.305Z,23.00
2018-05-16T09:33:08.375Z,22.90
2018-05-16T09:35:34.444Z,22.80
2018-05-16T09:38:00.515Z,22.90
2018-05-16T09:40:27.402Z,22.80
2018-05-16T09:42:53.390Z,22.80
2018-05-16T09:45:19.498Z,22.70
2018-05-16T09:47:45.647Z,22.80
2018-05-16T09:50:11.599Z,23.00
2018-05-16T09:52:37.809Z,22.80
2018-05-16T09:55:03.773Z,22.80
2018-05-16T09:57:29.863Z,22.90
2018-05-16T09:59:55.922Z,23.00
2018-05-16T10:02:21.968Z,23.00
2018-05-16T10:04:48.073Z,23.10
2018-05-16T10:07:14.977Z,23.40
2018-05-16T10:09:41.114Z,23.30
2018-05-16T10:12:07.128Z,23.60
2018-05-16T10:14:33.276Z,23.70
2018-05-16T10:16:59.372Z,23.60
2018-05-16T10:19:25.420Z,23.50
2018-05-16T10:21:51.480Z,23.50
2018-05-16T10:24:17.552Z,23.70
2018-05-16T10:26:43.651Z,23.90
2018-05-16T10:29:09.976Z,24.10
2018-05-16T10:31:36.767Z,24.10
2018-05-16T10:34:02.847Z,24.00
2018-05-16T10:36:29.208Z,24.20
2018-05-16T10:38:55.909Z,24.60
2018-05-16T10:41:21.913Z,24.60
2018-05-16T10:43:47.862Z,24.50
2018-05-16T10:46:14.099Z,24.50
2018-05-16T10:48:40.081Z,24.50
2018-05-16T10:51:06.074Z,24.60
2018-05-16T10:53:32.232Z,24.80
2018-05-16T10:55:58.274Z,25.00
2018-05-16T10:58:24.367Z,25.30
2018-05-16T11:00:50.467Z,25.50
2018-05-16T11:03:16.608Z,25.70
2018-05-16T11:05:42.626Z,25.60
2018-05-16T11:08:09.040Z,25.80
2018-05-16T11:10:35.185Z,26.00
2018-05-16T11:13:01.291Z,26.50
2018-05-16T11:15:28.095Z,27.80
2018-05-16T11:17:54.180Z,27.80
2018-05-16T11:20:21.013Z,29.10
2018-05-16T11:22:47.124Z,29.00
2018-05-16T11:25:13.861Z,29.70
2018-05-16T11:27:40.752Z,30.10
2018-05-16T11:30:06.814Z,30.50
2018-05-16T11:32:33.622Z,31.60
2018-05-16T11:34:59.688Z,31.60
2018-05-16T11:37:25.761Z,31.90
2018-05-16T11:39:52.584Z,32.60
2018-05-16T11:42:18.675Z,32.60
2018-05-16T11:44:45.536Z,32.90
2018-05-16T11:47:11.698Z,33.20
2018-05-16T11:49:37.727Z,33.80
2018-05-16T11:52:03.810Z,34.10
2018-05-16T11:54:30.697Z,34.50
2018-05-16T11:56:56.772Z,34.50
2018-05-16T11:59:22.830Z,33.90
2018-05-16T12:01:48.927Z,33.90
2018-05-16T12:04:15.763Z,33.90
2018-05-16T12:06:41.935Z,33.90
2018-05-16T12:09:09.208Z,34.20
2018-05-16T12:11:35.187Z,34.30
2018-05-16T12:14:01.515Z,34.60
2018-05-16T12:16:27.545Z,35.20
2018-05-16T12:18:53.642Z,36.10
2018-05-16T12:21:19.797Z,36.20
2018-05-16T12:23:45.888Z,36.10
2018-05-16T12:26:11.948Z,36.50
2018-05-16T12:28:38.002Z,36.40
2018-05-16T12:31:04.066Z,36.80
2018-05-16T12:33:30.980Z,37.50
2018-05-16T12:35:57.030Z,37.50
2018-05-16T12:38:23.305Z,37.80
2018-05-16T12:40:49.421Z,37.40
2018-05-16T12:43:16.581Z,37.70
2018-05-16T12:45:42.706Z,37.80
2018-05-16T12:48:08.780Z,38.30
2018-05-16T12:50:34.849Z,38.40
2018-05-16T12:53:01.707Z,38.50
2018-05-16T12:55:28.558Z,38.50
2018-05-16T12:57:55.390Z,39.20
2018-05-16T13:00:21.581Z,39.20
2018-05-16T13:02:47.688Z,39.40
2018-05-16T13:05:14.633Z,39.90
2018-05-16T13:07:41.521Z,39.90
2018-05-16T13:10:07.574Z,39.80
2018-05-16T13:12:34.071Z,39.90
2018-05-16T13:15:00.141Z,40.20
2018-05-16T13:17:26.188Z,40.90
2018-05-16T13:19:52.361Z,41.40
2018-05-16T13:22:18.494Z,41.10
2018-05-16T13:24:44.560Z,41.10
2018-05-16T13:27:11.443Z,40.80
2018-05-16T13:29:38.274Z,40.70
2018-05-16T13:32:04.324Z,40.60
2018-05-16T13:34:30.722Z,41.20
2018-05-16T13:36:56.773Z,41.60
2018-05-16T13:39:23.586Z,42.30
2018-05-16T13:41:49.634Z,42.30
2018-05-16T13:44:15.763Z,41.20
2018-05-16T13:46:41.797Z,39.80
2018-05-16T13:49:07.858Z,39.40
2018-05-16T13:51:33.932Z,39.00
2018-05-16T13:53:59.969Z,37.90
2018-05-16T13:56:26.020Z,36.80
2018-05-16T13:58:52.103Z,36.00
2018-05-16T14:01:18.211Z,35.70
2018-05-16T14:03:44.260Z,36.60
2018-05-16T14:06:10.443Z,37.10
2018-05-16T14:08:36.510Z,37.80
2018-05-16T14:11:02.653Z,37.90
2018-05-16T14:13:29.472Z,38.20
2018-05-16T14:15:55.536Z,38.20
2018-05-16T14:18:21.600Z,37.60
2018-05-16T14:20:48.434Z,38.10
2018-05-16T14:23:15.307Z,37.40
2018-05-16T14:25:41.403Z,37.30
2018-05-16T14:28:07.516Z,36.30
2018-05-16T14:30:33.558Z,36.70
2018-05-16T14:32:59.614Z,37.80
2018-05-16T14:35:26.455Z,38.90
2018-05-16T14:37:52.515Z,38.90
2018-05-16T14:40:19.221Z,39.90
2018-05-16T14:42:45.305Z,40.30
2018-05-16T14:45:11.351Z,40.50
2018-05-16T14:47:37.425Z,40.70
2018-05-16T14:50:03.546Z,41.00
2018-05-16T14:52:30.394Z,41.90
2018-05-16T14:54:57.222Z,42.60
2018-05-16T14:57:23.294Z,42.60
2018-05-16T14:59:49.402Z,43.80
2018-05-16T15:02:15.811Z,44.00
2018-05-16T15:04:41.920Z,43.50
2018-05-16T15:07:08.754Z,40.40
2018-05-16T15:09:34.854Z,40.50
2018-05-16T15:12:00.906Z,40.30
2018-05-16T15:14:27.034Z,40.60
2018-05-16T15:16:53.117Z,40.70
2018-05-16T15:19:19.158Z,40.90
2018-05-16T15:21:45.239Z,41.60
2018-05-16T15:24:11.339Z,41.50
2018-05-16T15:26:38.144Z,40.20
2018-05-16T15:29:04.236Z,40.20
2018-05-16T15:31:31.104Z,40.90
2018-05-16T15:33:57.164Z,40.90
2018-05-16T15:36:23.308Z,40.10
2018-05-16T15:38:49.386Z,40.60
2018-05-16T15:41:15.492Z,40.30
2018-05-16T15:43:41.601Z,40.20
2018-05-16T15:46:07.641Z,39.80
2018-05-16T15:48:33.718Z,39.90
2018-05-16T15:50:59.911Z,40.60
2018-05-16T15:53:26.691Z,40.20
2018-05-16T15:55:52.741Z,40.20
2018-05-16T15:58:18.813Z,40.20
2018-05-16T16:00:45.085Z,39.80
2018-05-16T16:03:11.144Z,38.00
2018-05-16T16:05:37.204Z,37.10
2018-05-16T16:08:03.388Z,36.20
2018-05-16T16:10:30.153Z,35.80
2018-05-16T16:12:56.938Z,36.30
2018-05-16T16:15:22.974Z,36.20
2018-05-16T16:17:49.071Z,36.00
2018-05-16T16:20:15.217Z,37.10
2018-05-16T16:22:41.266Z,38.10
2018-05-16T16:25:07.527Z,38.40
2018-05-16T16:27:33.624Z,38.50
2018-05-16T16:29:59.664Z,38.80
2018-05-16T16:32:25.929Z,39.30
2018-05-16T16:34:52.037Z,39.00
2018-05-16T16:37:18.916Z,37.40
2018-05-16T16:39:45.703Z,35.10
2018-05-16T16:42:11.970Z,35.00
2018-05-16T16:44:38.099Z,34.90
2018-05-16T16:47:04.315Z,35.00
2018-05-16T16:49:30.343Z,34.90
2018-05-16T16:51:56.487Z,35.20
2018-05-16T16:54:22.650Z,35.50
2018-05-16T16:56:48.788Z,35.50
2018-05-16T16:59:15.019Z,35.10
2018-05-16T17:01:41.181Z,35.00
2018-05-16T17:04:08.029Z,35.30
2018-05-16T17:06:34.080Z,35.30
2018-05-16T17:09:06.888Z,35.00
2018-05-16T17:11:33.005Z,34.90
2018-05-16T17:13:59.085Z,35.20
2018-05-16T17:16:25.834Z,35.30
2018-05-16T17:18:52.675Z,34.20
2018-05-16T17:21:18.729Z,34.20
2018-05-16T17:23:44.822Z,31.80
2018-05-16T17:26:10.863Z,30.40
2018-05-16T17:28:37.072Z,29.60
2018-05-16T17:31:03.230Z,28.60
2018-05-16T17:33:29.316Z,27.60
2018-05-16T17:35:55.372Z,26.90
2018-05-16T17:38:22.250Z,25.50
2018-05-16T17:40:48.375Z,25.40
2018-05-16T17:43:15.285Z,25.20
2018-05-16T17:45:41.525Z,24.90
2018-05-16T17:48:07.607Z,24.50
2018-05-16T17:50:33.693Z,24.00
2018-05-16T17:52:59.757Z,24.00
2018-05-16T17:55:25.819Z,23.90
2018-05-16T17:57:52.628Z,23.50
2018-05-16T18:00:18.685Z,23.50
2018-05-16T18:02:44.813Z,23.30
2018-05-16T18:05:10.875Z,23.10
2018-05-16T18:07:36.947Z,22.90
2018-05-16T18:10:04.248Z,22.70
2018-05-16T18:12:30.353Z,22.60
2018-05-16T18:15:15.723Z,22.50
2018-05-16T18:17:41.956Z,22.30
2018-05-16T18:20:08.771Z,21.90
2018-05-16T18:22:34.849Z,21.90
2018-05-16T18:25:01.712Z,21.70
2018-05-16T18:27:28.497Z,21.60
2018-05-16T18:29:54.583Z,21.50
2018-05-16T18:32:20.722Z,21.40
2018-05-16T18:34:46.900Z,21.30
2018-05-16T18:37:13.688Z,21.00
2018-05-16T18:39:39.866Z,21.00
2018-05-16T18:42:05.899Z,21.00
2018-05-16T18:44:32.000Z,20.80
2018-05-16T18:46:58.127Z,20.70
2018-05-16T18:49:24.292Z,20.60
2018-05-16T18:51:50.445Z,20.50
2018-05-16T18:54:16.527Z,20.40
2018-05-16T18:56:42.718Z,20.20
2018-05-16T18:59:08.822Z,20.10
2018-05-16T19:01:34.991Z,20.00
2018-05-16T19:04:01.100Z,19.80
2018-05-16T19:06:27.462Z,19.60
2018-05-16T19:08:53.605Z,19.50
2018-05-16T19:11:20.487Z,19.30
2018-05-16T19:13:46.760Z,19.30
2018-05-16T19:16:12.944Z,19.20
2018-05-16T19:18:39.232Z,19.10
2018-05-16T19:21:06.557Z,18.90
2018-05-16T19:23:36.528Z,18.80
2018-05-16T19:26:04.495Z,18.60
2018-05-16T19:28:30.620Z,18.60
2018-05-16T19:30:56.670Z,18.50
2018-05-16T19:33:22.767Z,18.40
2018-05-16T19:35:48.800Z,18.30
2018-05-16T19:38:15.700Z,18.10
2018-05-16T19:40:41.979Z,18.00
2018-05-16T19:43:07.942Z,18.00
2018-05-16T19:45:34.137Z,18.00
2018-05-16T19:48:00.256Z,17.90
2018-05-16T19:50:26.308Z,17.80
2018-05-16T19:52:52.448Z,17.80
2018-05-16T19:55:18.459Z,17.80
2018-05-16T19:57:45.632Z,17.70
2018-05-16T20:00:11.706Z,17.70
2018-05-16T20:02:38.681Z,17.50
2018-05-16T20:05:04.722Z,17.50
2018-05-16T20:07:30.799Z,17.40
2018-05-16T20:09:56.897Z,17.30
2018-05-16T20:12:22.955Z,17.30
2018-05-16T20:14:49.150Z,17.30
2018-05-16T20:17:15.220Z,17.30
2018-05-16T20:19:41.274Z,17.30
2018-05-16T20:22:08.181Z,17.20
2018-05-16T20:24:35.462Z,17.10
2018-05-16T20:27:02.253Z,17.10
2018-05-16T20:29:28.321Z,17.10
2018-05-16T20:31:54.348Z,17.00
2018-05-16T20:34:20.398Z,16.90
2018-05-16T20:36:46.519Z,16.80
2018-05-16T20:39:12.938Z,16.70
2018-05-16T20:41:39.030Z,16.60
2018-05-16T20:44:05.825Z,16.40
2018-05-16T20:46:32.002Z,16.40
2018-05-16T20:48:58.079Z,16.40
2018-05-16T20:51:25.015Z,16.20
2018-05-16T20:53:51.097Z,16.20
2018-05-16T20:56:17.204Z,16.10
2018-05-16T20:58:44.043Z,16.00
2018-05-16T21:01:10.132Z,15.90
2018-05-16T21:03:36.258Z,15.90
2018-05-16T21:06:02.320Z,15.80
2018-05-16T21:08:28.374Z,15.70
2018-05-16T21:10:54.429Z,15.70
2018-05-16T21:13:20.515Z,15.60
2018-05-16T21:15:46.920Z,15.60
2018-05-16T21:18:12.968Z,15.60
2018-05-16T21:20:39.089Z,15.50
2018-05-16T21:23:05.118Z,15.40
2018-05-16T21:25:31.265Z,15.30
2018-05-16T21:27:57.319Z,15.30
2018-05-16T21:30:23.363Z,15.30
2018-05-16T21:32:49.432Z,15.20
2018-05-16T21:35:15.575Z,15.20
2018-05-16T21:37:41.680Z,15.10
2018-05-16T21:40:07.772Z,15.10
2018-05-16T21:42:33.859Z,15.00
2018-05-16T21:45:00.657Z,14.80
2018-05-16T21:47:26.774Z,14.80
2018-05-16T21:49:52.896Z,14.70
2018-05-16T21:52:18.943Z,14.70
2018-05-16T21:54:45.027Z,14.60
2018-05-16T21:57:11.070Z,14.50
2018-05-16T21:59:37.131Z,14.50
2018-05-16T22:02:03.183Z,14.40
2018-05-16T22:04:29.973Z,14.20
2018-05-16T22:06:56.042Z,14.20
2018-05-16T22:09:22.083Z,14.10
2018-05-16T22:11:48.858Z,14.10
2018-05-16T22:14:15.701Z,14.00
2018-05-16T22:16:41.759Z,14.00
2018-05-16T22:19:08.567Z,13.90
2018-05-16T22:21:34.642Z,13.80
2018-05-16T22:24:01.496Z,13.70
2018-05-16T22:26:28.278Z,13.60
2018-05-16T22:28:54.609Z,13.60
2018-05-16T22:31:27.437Z,13.40
2018-05-16T22:33:59.562Z,13.40
2018-05-16T22:36:31.834Z,13.30
2018-05-16T22:39:04.255Z,13.30
2018-05-16T22:41:36.479Z,13.20
2018-05-16T22:44:08.626Z,13.20
2018-05-16T22:46:34.683Z,13.10
2018-05-16T22:49:00.785Z,13.00
2018-05-16T22:51:28.380Z,12.80
2018-05-16T22:53:54.454Z,12.80
2018-05-16T22:56:20.862Z,12.70
2018-05-16T22:58:46.925Z,12.60
2018-05-16T23:01:13.074Z,12.50
2018-05-16T23:03:39.104Z,12.50
2018-05-16T23:06:05.186Z,12.40
2018-05-16T23:08:32.048Z,12.20
2018-05-16T23:10:58.861Z,12.20
2018-05-16T23:13:24.929Z,12.10
2018-05-16T23:15:51.010Z,12.10
2018-05-16T23:18:17.080Z,12.10
2018-05-16T23:20:43.140Z,11.90
2018-05-16T23:23:09.205Z,11.90
2018-05-16T23:25:35.230Z,11.80
2018-05-16T23:28:02.010Z,11.70
2018-05-16T23:30:28.077Z,11.70
2018-05-16T23:32:54.135Z,11.70
2018-05-16T23:35:20.161Z,11.60
2018-05-16T23:37:46.330Z,11.50
2018-05-16T23:40:12.519Z,11.50
2018-05-16T23:42:38.588Z,11.50
2018-05-16T23:45:04.655Z,11.40
2018-05-16T23:47:31.488Z,11.30
2018-05-16T23:49:57.535Z,11.20
2018-05-16T23:52:23.578Z,11.30
2018-05-16T23:54:49.675Z,11.20
2018-05-16T23:57:15.720Z,11.20
2018-05-16T23:59:41.790Z,11.20
